Pontiac, Illinois
Current Conditions -  °F | °C
As of 4:15 PM on Monday 26 Jan 2015 (Local Time) from KPNT Reporting Station
Haze Haze  
Wind Chill: 21°   Ceiling: 1000
Heat Index: 29°   Visibility: 5mi
Dew Point: 27°   Wind: 8mph
Humidity: 92%   Direction: 170°S
Pressure: 29.88"   Gusts: NA
Location:  40.88°N, 88.63°W
Report Text: KPNT 262215Z AUTO 17007KT 5SM BR BKN010 OVC019 M02/M03 A2988 RMK AO2 T10161028
Loading
Personal Weather Stations






























Interactive Weather Map New forecast layout! Learn more

10-Day Weather Forecast

Advertisements
Track Severe Weather on mobile